^^
Station Historical Data
Daily Summary for May 9, 2017 Units:  Both    English   Metric
« Previous Day
Next Day »
Daily Weekly Monthly Yearly Custom
  High: Low: Average:
Temperature: 79.0 °F /  26.1 °C 49.8 °F /  9.9 °C 63.6 °F /  17.6 °C
Dew Point: 47.3 °F /  8.5 °C 37.6 °F /  3.1 °C 42.6 °F /  5.9 °C
Humidity: 68% 27% 49%
Wind Speed: 11.0mph /  17.7km/h - 1mph /  1.6km/h
Wind Gust: 13.0mph /  20.9km/h - -
Wind- - SSW
Pressure: 30.05 in /  1017.5 hPa 29.91 in /  1012.8 hPa -
Precipitation: 0.00 in /  0 mm    
Historical Graphs
 
 
Tabular Data for May 9, 2017
Time Temperature Dew Point Pressure Wind Wind Speed Wind Gust Humidity Rainfall Rate (Hourly) solar Conditions
00:05 54.9 °F /  12.7 °C 39.4 °F /  4.1 °C 30.01in /  1016.1hPa ESE 2.9mph /  4.7km/h 5.0mph /  8km/h 56% 0.00in /  0mm 0.0 W/m2
00:11 54.7 °F /  12.6 °C 39.4 °F /  4.1 °C 30.01in /  1016.1hPa Calm   2.0mph /  3.2km/h 56% 0.00in /  0mm 0.0 W/m2
00:17 54.7 °F /  12.6 °C 39.7 °F /  4.3 °C 30.01in /  1016.1hPa ESE 0.9mph /  1.4km/h 3.0mph /  4.8km/h 57% 0.00in /  0mm 0.0 W/m2
00:24 54.3 °F /  12.4 °C 39.4 °F /  4.1 °C 30.01in /  1016.1hPa Calm   3.0mph /  4.8km/h 57% 0.00in /  0mm 0.0 W/m2
00:30 54.1 °F /  12.3 °C 39.2 °F /  4 °C 30.01in /  1016.1hPa ESE 0.9mph /  1.4km/h 5.0mph /  8km/h 57% 0.00in /  0mm 0.0 W/m2
00:36 54.0 °F /  12.2 °C 39.0 °F /  3.9 °C 30.01in /  1016.1hPa Calm     57% 0.00in /  0mm 0.0 W/m2
00:42 54.0 °F /  12.2 °C 39.6 °F /  4.2 °C 30.00in /  1015.8hPa Calm     58% 0.00in /  0mm 0.0 W/m2
00:48 54.0 °F /  12.2 °C 39.6 °F /  4.2 °C 30.00in /  1015.8hPa Calm   3.0mph /  4.8km/h 58% 0.00in /  0mm 0.0 W/m2
00:54 53.8 °F /  12.1 °C 39.4 °F /  4.1 °C 30.00in /  1015.8hPa Calm   2.0mph /  3.2km/h 58% 0.00in /  0mm 0.0 W/m2
01:00 53.8 °F /  12.1 °C 39.4 °F /  4.1 °C 30.00in /  1015.8hPa Calm   1.0mph /  1.6km/h 58% 0.00in /  0mm 0.0 W/m2
01:06 53.8 °F /  12.1 °C 39.4 °F /  4.1 °C 30.00in /  1015.8hPa Calm   2.0mph /  3.2km/h 58% 0.00in /  0mm 0.0 W/m2
01:13 53.6 °F /  12 °C 39.2 °F /  4 °C 30.00in /  1015.8hPa Calm   3.0mph /  4.8km/h 58% 0.00in /  0mm 0.0 W/m2
01:19 53.4 °F /  11.9 °C 39.4 °F /  4.1 °C 30.00in /  1015.8hPa Calm   2.0mph /  3.2km/h 59% 0.00in /  0mm 0.0 W/m2
01:25 53.2 °F /  11.8 °C 39.2 °F /  4 °C 30.00in /  1015.8hPa Calm   3.0mph /  4.8km/h 59% 0.00in /  0mm 0.0 W/m2
01:31 53.1 °F /  11.7 °C 39.2 °F /  4 °C 30.00in /  1015.8hPa Calm   1.0mph /  1.6km/h 59% 0.00in /  0mm 0.0 W/m2
01:37 53.1 °F /  11.7 °C 38.7 °F /  3.7 °C 30.00in /  1015.8hPa Calm   1.0mph /  1.6km/h 58% 0.00in /  0mm 0.0 W/m2
01:43 53.1 °F /  11.7 °C 38.7 °F /  3.7 °C 29.99in /  1015.5hPa Calm   2.0mph /  3.2km/h 58% 0.00in /  0mm 0.0 W/m2
01:49 53.1 °F /  11.7 °C 38.7 °F /  3.7 °C 29.99in /  1015.5hPa Calm   3.0mph /  4.8km/h 58% 0.00in /  0mm 0.0 W/m2
01:55 53.1 °F /  11.7 °C 38.7 °F /  3.7 °C 30.00in /  1015.8hPa Calm   2.0mph /  3.2km/h 58% 0.00in /  0mm 0.0 W/m2
02:01 52.9 °F /  11.6 °C 38.5 °F /  3.6 °C 29.99in /  1015.5hPa Calm   1.0mph /  1.6km/h 58% 0.00in /  0mm 0.0 W/m2
02:08 52.9 °F /  11.6 °C 38.5 °F /  3.6 °C 29.99in /  1015.5hPa Calm     58% 0.00in /  0mm 0.0 W/m2
02:14 52.5 °F /  11.4 °C 38.1 °F /  3.4 °C 29.99in /  1015.5hPa Calm   1.0mph /  1.6km/h 58% 0.00in /  0mm 0.0 W/m2
02:20 52.5 °F /  11.4 °C 38.1 °F /  3.4 °C 29.99in /  1015.5hPa Calm     58% 0.00in /  0mm 0.0 W/m2
02:26 52.3 °F /  11.3 °C 37.9 °F /  3.3 °C 29.99in /  1015.5hPa Calm   1.0mph /  1.6km/h 58% 0.00in /  0mm 0.0 W/m2
02:32 52.3 °F /  11.3 °C 37.9 °F /  3.3 °C 29.99in /  1015.5hPa Calm   1.0mph /  1.6km/h 58% 0.00in /  0mm 0.0 W/m2
02:38 52.2 °F /  11.2 °C 37.8 °F /  3.2 °C 29.99in /  1015.5hPa Calm   1.0mph /  1.6km/h 58% 0.00in /  0mm 0.0 W/m2
02:45 52.2 °F /  11.2 °C 37.8 °F /  3.2 °C 29.99in /  1015.5hPa Calm   2.0mph /  3.2km/h 58% 0.00in /  0mm 0.0 W/m2
02:51 52.2 °F /  11.2 °C 37.8 °F /  3.2 °C 29.99in /  1015.5hPa Calm   2.0mph /  3.2km/h 58% 0.00in /  0mm 0.0 W/m2
02:57 52.2 °F /  11.2 °C 37.8 °F /  3.2 °C 29.99in /  1015.5hPa Calm     58% 0.00in /  0mm 0.0 W/m2
03:03 52.2 °F /  11.2 °C 37.8 °F /  3.2 °C 29.99in /  1015.5hPa SE 0.9mph /  1.4km/h 2.0mph /  3.2km/h 58% 0.00in /  0mm 0.0 W/m2
03:09 52.2 °F /  11.2 °C 37.8 °F /  3.2 °C 29.99in /  1015.5hPa Calm   2.0mph /  3.2km/h 58% 0.00in /  0mm 0.0 W/m2
03:15 52.0 °F /  11.1 °C 37.6 °F /  3.1 °C 29.98in /  1015.1hPa Calm   1.0mph /  1.6km/h 58% 0.00in /  0mm 0.0 W/m2
03:21 52.0 °F /  11.1 °C 38.1 °F /  3.4 °C 29.99in /  1015.5hPa Calm   1.0mph /  1.6km/h 59% 0.00in /  0mm 0.0 W/m2
03:27 51.8 °F /  11 °C 37.9 °F /  3.3 °C 29.99in /  1015.5hPa East 0.9mph /  1.4km/h 1.0mph /  1.6km/h 59% 0.00in /  0mm 0.0 W/m2
03:33 51.6 °F /  10.9 °C 37.8 °F /  3.2 °C 29.99in /  1015.5hPa Calm     59% 0.00in /  0mm 0.0 W/m2
03:40 51.6 °F /  10.9 °C 37.8 °F /  3.2 °C 29.98in /  1015.1hPa Calm   1.0mph /  1.6km/h 59% 0.00in /  0mm 0.0 W/m2
03:46 51.8 °F /  11 °C 37.9 °F /  3.3 °C 29.99in /  1015.5hPa Calm     59% 0.00in /  0mm 0.0 W/m2
03:52 51.8 °F /  11 °C 37.9 °F /  3.3 °C 29.99in /  1015.5hPa Calm   1.0mph /  1.6km/h 59% 0.00in /  0mm 0.0 W/m2
03:58 51.6 °F /  10.9 °C 37.8 °F /  3.2 °C 29.99in /  1015.5hPa Calm   1.0mph /  1.6km/h 59% 0.00in /  0mm 0.0 W/m2
04:04 51.6 °F /  10.9 °C 38.1 °F /  3.4 °C 29.99in /  1015.5hPa SE 0.9mph /  1.4km/h 3.0mph /  4.8km/h 60% 0.00in /  0mm 0.0 W/m2
04:10 51.6 °F /  10.9 °C 37.8 °F /  3.2 °C 29.99in /  1015.5hPa Calm   3.0mph /  4.8km/h 59% 0.00in /  0mm 0.0 W/m2
04:16 51.8 °F /  11 °C 38.3 °F /  3.5 °C 29.99in /  1015.5hPa Calm   1.0mph /  1.6km/h 60% 0.00in /  0mm 0.0 W/m2
04:23 51.6 °F /  10.9 °C 38.1 °F /  3.4 °C 29.99in /  1015.5hPa Calm   3.0mph /  4.8km/h 60% 0.00in /  0mm 0.0 W/m2
04:29 51.6 °F /  10.9 °C 38.7 °F /  3.7 °C 29.99in /  1015.5hPa ENE 0.9mph /  1.4km/h 4.0mph /  6.4km/h 61% 0.00in /  0mm 0.0 W/m2
04:35 51.4 °F /  10.8 °C 38.5 °F /  3.6 °C 29.99in /  1015.5hPa ENE 2.0mph /  3.2km/h 2.0mph /  3.2km/h 61% 0.00in /  0mm 0.0 W/m2
04:41 51.4 °F /  10.8 °C 38.5 °F /  3.6 °C 29.99in /  1015.5hPa Calm     61% 0.00in /  0mm 0.0 W/m2
04:47 51.3 °F /  10.7 °C 38.7 °F /  3.7 °C 30.00in /  1015.8hPa Calm   1.0mph /  1.6km/h 62% 0.00in /  0mm 0.0 W/m2
04:53 51.1 °F /  10.6 °C 38.5 °F /  3.6 °C 30.00in /  1015.8hPa Calm   1.0mph /  1.6km/h 62% 0.00in /  0mm 0.0 W/m2
04:59 51.1 °F /  10.6 °C 38.5 °F /  3.6 °C 30.00in /  1015.8hPa Calm   2.0mph /  3.2km/h 62% 0.00in /  0mm 0.0 W/m2
05:06 50.7 °F /  10.4 °C 38.7 °F /  3.7 °C 30.00in /  1015.8hPa Calm   3.0mph /  4.8km/h 63% 0.00in /  0mm 0.0 W/m2
05:12 50.7 °F /  10.4 °C 38.7 °F /  3.7 °C 30.00in /  1015.8hPa Calm   1.0mph /  1.6km/h 63% 0.00in /  0mm 0.0 W/m2
05:18 50.7 °F /  10.4 °C 39.0 °F /  3.9 °C 30.00in /  1015.8hPa Calm   2.0mph /  3.2km/h 64% 0.00in /  0mm 0.0 W/m2
05:24 50.5 °F /  10.3 °C 38.8 °F /  3.8 °C 30.01in /  1016.1hPa Calm   1.0mph /  1.6km/h 64% 0.00in /  0mm 0.0 W/m2
05:30 50.4 °F /  10.2 °C 39.0 °F /  3.9 °C 30.01in /  1016.1hPa ESE 0.9mph /  1.4km/h 2.0mph /  3.2km/h 65% 0.00in /  0mm 0.0 W/m2
05:36 50.4 °F /  10.2 °C 38.7 °F /  3.7 °C 30.01in /  1016.1hPa East 0.9mph /  1.4km/h 2.0mph /  3.2km/h 64% 0.00in /  0mm 0.0 W/m2
05:42 50.4 °F /  10.2 °C 39.0 °F /  3.9 °C 30.01in /  1016.1hPa Calm   1.0mph /  1.6km/h 65% 0.00in /  0mm 0.0 W/m2
05:49 50.2 °F /  10.1 °C 38.8 °F /  3.8 °C 30.01in /  1016.1hPa East 0.9mph /  1.4km/h 2.0mph /  3.2km/h 65% 0.00in /  0mm 0.0 W/m2
05:55 50.2 °F /  10.1 °C 38.8 °F /  3.8 °C 30.01in /  1016.1hPa ESE 2.0mph /  3.2km/h 3.0mph /  4.8km/h 65% 0.00in /  0mm 0.0 W/m2
06:01 50.2 °F /  10.1 °C 39.2 °F /  4 °C 30.01in /  1016.1hPa East 0.9mph /  1.4km/h 5.0mph /  8km/h 66% 0.00in /  0mm 0.0 W/m2
06:07 50.0 °F /  10 °C 39.0 °F /  3.9 °C 30.01in /  1016.1hPa ENE 4.9mph /  7.9km/h 5.0mph /  8km/h 66% 0.00in /  0mm 0.0 W/m2
06:13 49.8 °F /  9.9 °C 38.8 °F /  3.8 °C 30.02in /  1016.5hPa Calm   2.0mph /  3.2km/h 66% 0.00in /  0mm 0.0 W/m2
06:19 49.8 °F /  9.9 °C 38.8 °F /  3.8 °C 30.02in /  1016.5hPa SE 0.9mph /  1.4km/h 2.0mph /  3.2km/h 66% 0.00in /  0mm 5.0 W/m2
06:26 49.8 °F /  9.9 °C 38.8 °F /  3.8 °C 30.03in /  1016.8hPa Calm   1.0mph /  1.6km/h 66% 0.00in /  0mm 7.0 W/m2
06:32 49.8 °F /  9.9 °C 39.4 °F /  4.1 °C 30.03in /  1016.8hPa Calm     67% 0.00in /  0mm 11.0 W/m2
06:38 50.0 °F /  10 °C 39.6 °F /  4.2 °C 30.03in /  1016.8hPa Calm     67% 0.00in /  0mm 12.0 W/m2
06:44 50.0 °F /  10 °C 39.6 °F /  4.2 °C 30.03in /  1016.8hPa Calm   1.0mph /  1.6km/h 67% 0.00in /  0mm 14.0 W/m2
06:50 50.2 °F /  10.1 °C 39.2 °F /  4 °C 30.03in /  1016.8hPa Calm     66% 0.00in /  0mm 18.0 W/m2
06:56 50.5 °F /  10.3 °C 39.6 °F /  4.2 °C 30.03in /  1016.8hPa Calm     66% 0.00in /  0mm 21.0 W/m2
07:02 50.9 °F /  10.5 °C 39.9 °F /  4.4 °C 30.04in /  1017.2hPa Calm     66% 0.00in /  0mm 30.0 W/m2
07:09 51.4 °F /  10.8 °C 40.5 °F /  4.7 °C 30.04in /  1017.2hPa Calm     66% 0.00in /  0mm 42.0 W/m2
07:15 52.0 °F /  11.1 °C 40.6 °F /  4.8 °C 30.04in /  1017.2hPa Calm     65% 0.00in /  0mm 54.0 W/m2
07:21 52.3 °F /  11.3 °C 41.0 °F /  5 °C 30.04in /  1017.2hPa Calm     65% 0.00in /  0mm 60.0 W/m2
07:27 52.9 °F /  11.6 °C 41.4 °F /  5.2 °C 30.04in /  1017.2hPa Calm     65% 0.00in /  0mm 67.0 W/m2
07:33 53.4 °F /  11.9 °C 41.9 °F /  5.5 °C 30.04in /  1017.2hPa Calm     65% 0.00in /  0mm 83.0 W/m2
07:39 54.3 °F /  12.4 °C 42.4 °F /  5.8 °C 30.05in /  1017.5hPa Calm     64% 0.00in /  0mm 100.0 W/m2
07:45 55.6 °F /  13.1 °C 42.8 °F /  6 °C 30.05in /  1017.5hPa Calm     62% 0.00in /  0mm 125.0 W/m2
07:51 56.8 °F /  13.8 °C 42.6 °F /  5.9 °C 30.05in /  1017.5hPa Calm     59% 0.00in /  0mm 134.0 W/m2
07:58 57.9 °F /  14.4 °C 41.9 °F /  5.5 °C 30.05in /  1017.5hPa Calm     55% 0.00in /  0mm 142.0 W/m2
08:04 59.5 °F /  15.3 °C 43.3 °F /  6.3 °C 30.05in /  1017.5hPa Calm     55% 0.00in /  0mm 156.0 W/m2
08:10 61.2 °F /  16.2 °C 42.4 °F /  5.8 °C 30.05in /  1017.5hPa Calm     50% 0.00in /  0mm 146.0 W/m2
08:16 62.2 °F /  16.8 °C 43.3 °F /  6.3 °C 30.05in /  1017.5hPa ENE 0.9mph /  1.4km/h 2.0mph /  3.2km/h 50% 0.00in /  0mm 269.0 W/m2
08:22 63.7 °F /  17.6 °C 43.2 °F /  6.2 °C 30.05in /  1017.5hPa Calm   1.0mph /  1.6km/h 47% 0.00in /  0mm 163.0 W/m2
08:28 64.6 °F /  18.1 °C 43.9 °F /  6.6 °C 30.05in /  1017.5hPa Calm     47% 0.00in /  0mm 174.0 W/m2
08:34 65.3 °F /  18.5 °C 43.3 °F /  6.3 °C 30.05in /  1017.5hPa Calm     45% 0.00in /  0mm 568.0 W/m2
08:41 66.6 °F /  19.2 °C 42.1 °F /  5.6 °C 30.05in /  1017.5hPa Calm     41% 0.00in /  0mm 541.0 W/m2
08:47 67.5 °F /  19.7 °C 42.3 °F /  5.7 °C 30.05in /  1017.5hPa Calm   2.0mph /  3.2km/h 40% 0.00in /  0mm 529.0 W/m2
08:53 69.1 °F /  20.6 °C 42.4 °F /  5.8 °C 30.05in /  1017.5hPa Calm     38% 0.00in /  0mm 529.0 W/m2
08:59 70.5 °F /  21.4 °C 43.0 °F /  6.1 °C 30.05in /  1017.5hPa Calm   1.0mph /  1.6km/h 37% 0.00in /  0mm 545.0 W/m2
09:05 72.0 °F /  22.2 °C 44.2 °F /  6.8 °C 30.04in /  1017.2hPa Calm     37% 0.00in /  0mm 563.0 W/m2
09:11 72.7 °F /  22.6 °C 44.2 °F /  6.8 °C 30.04in /  1017.2hPa Calm   1.0mph /  1.6km/h 36% 0.00in /  0mm 578.0 W/m2
09:17 73.2 °F /  22.9 °C 43.9 °F /  6.6 °C 30.04in /  1017.2hPa Calm   1.0mph /  1.6km/h 35% 0.00in /  0mm 591.0 W/m2
09:23 72.9 °F /  22.7 °C 42.8 °F /  6 °C 30.04in /  1017.2hPa Calm     34% 0.00in /  0mm 603.0 W/m2
09:30 73.4 °F /  23 °C 44.1 °F /  6.7 °C 30.04in /  1017.2hPa NNW 0.9mph /  1.4km/h 2.0mph /  3.2km/h 35% 0.00in /  0mm 619.0 W/m2
09:36 73.9 °F /  23.3 °C 44.6 °F /  7 °C 30.04in /  1017.2hPa Calm   1.0mph /  1.6km/h 35% 0.00in /  0mm 635.0 W/m2
09:42 74.1 °F /  23.4 °C 44.8 °F /  7.1 °C 30.04in /  1017.2hPa WSW 0.9mph /  1.4km/h 1.0mph /  1.6km/h 35% 0.00in /  0mm 647.0 W/m2
09:48 74.1 °F /  23.4 °C 45.5 °F /  7.5 °C 30.04in /  1017.2hPa WSW 0.9mph /  1.4km/h 4.0mph /  6.4km/h 36% 0.00in /  0mm 661.0 W/m2
09:54 74.5 °F /  23.6 °C 45.0 °F /  7.2 °C 30.04in /  1017.2hPa Calm   1.0mph /  1.6km/h 35% 0.00in /  0mm 677.0 W/m2
10:00 75.0 °F /  23.9 °C 45.5 °F /  7.5 °C 30.04in /  1017.2hPa Calm   6.0mph /  9.7km/h 35% 0.00in /  0mm 698.0 W/m2
10:06 75.4 °F /  24.1 °C 45.1 °F /  7.3 °C 30.03in /  1016.8hPa Calm   6.0mph /  9.7km/h 34% 0.00in /  0mm 717.0 W/m2
10:12 75.6 °F /  24.2 °C 45.1 °F /  7.3 °C 30.03in /  1016.8hPa NNW 4.9mph /  7.9km/h 8.0mph /  12.9km/h 34% 0.00in /  0mm 721.0 W/m2
10:19 75.4 °F /  24.1 °C 45.1 °F /  7.3 °C 30.03in /  1016.8hPa NW 0.9mph /  1.4km/h 9.0mph /  14.5km/h 34% 0.00in /  0mm 738.0 W/m2
10:25 75.4 °F /  24.1 °C 44.2 °F /  6.8 °C 30.02in /  1016.5hPa Calm   3.0mph /  4.8km/h 33% 0.00in /  0mm 756.0 W/m2
10:31 75.6 °F /  24.2 °C 45.1 °F /  7.3 °C 30.02in /  1016.5hPa NNE 2.0mph /  3.2km/h 4.0mph /  6.4km/h 34% 0.00in /  0mm 784.0 W/m2
10:37 75.7 °F /  24.3 °C 44.6 °F /  7 °C 30.02in /  1016.5hPa North 0.9mph /  1.4km/h 8.0mph /  12.9km/h 33% 0.00in /  0mm 875.0 W/m2
10:43 75.6 °F /  24.2 °C 43.7 °F /  6.5 °C 30.02in /  1016.5hPa NNW 2.9mph /  4.7km/h 8.0mph /  12.9km/h 32% 0.00in /  0mm 830.0 W/m2
10:49 75.9 °F /  24.4 °C 44.8 °F /  7.1 °C 30.01in /  1016.1hPa NNW 4.0mph /  6.4km/h 10.0mph /  16.1km/h 33% 0.00in /  0mm 830.0 W/m2
10:55 76.3 °F /  24.6 °C 44.2 °F /  6.8 °C 30.01in /  1016.1hPa North 4.0mph /  6.4km/h 13.0mph /  20.9km/h 32% 0.00in /  0mm 826.0 W/m2
11:01 76.6 °F /  24.8 °C 44.6 °F /  7 °C 30.01in /  1016.1hPa NW 2.9mph /  4.7km/h 6.0mph /  9.7km/h 32% 0.00in /  0mm 838.0 W/m2
11:08 77.2 °F /  25.1 °C 46.6 °F /  8.1 °C 30.00in /  1015.8hPa Calm   1.0mph /  1.6km/h 34% 0.00in /  0mm 840.0 W/m2
11:14 77.0 °F /  25 °C 44.1 °F /  6.7 °C 30.00in /  1015.8hPa WNW 2.9mph /  4.7km/h 7.0mph /  11.3km/h 31% 0.00in /  0mm 846.0 W/m2
11:20 77.4 °F /  25.2 °C 45.1 °F /  7.3 °C 29.99in /  1015.5hPa NNW 0.9mph /  1.4km/h 5.0mph /  8km/h 32% 0.00in /  0mm 817.0 W/m2
11:26 77.5 °F /  25.3 °C 43.7 °F /  6.5 °C 29.99in /  1015.5hPa North 4.9mph /  7.9km/h 11.0mph /  17.7km/h 30% 0.00in /  0mm 814.0 W/m2
11:32 77.4 °F /  25.2 °C 44.4 °F /  6.9 °C 29.99in /  1015.5hPa NE 0.9mph /  1.4km/h 7.0mph /  11.3km/h 31% 0.00in /  0mm 824.0 W/m2
11:38 77.4 °F /  25.2 °C 44.4 °F /  6.9 °C 29.98in /  1015.1hPa North 11.0mph /  17.7km/h 13.0mph /  20.9km/h 31% 0.00in /  0mm 165.0 W/m2
11:44 76.8 °F /  24.9 °C 43.9 °F /  6.6 °C 29.98in /  1015.1hPa ENE 4.0mph /  6.4km/h 8.0mph /  12.9km/h 31% 0.00in /  0mm 853.0 W/m2
11:50 77.2 °F /  25.1 °C 44.2 °F /  6.8 °C 29.98in /  1015.1hPa North 6.9mph /  11.1km/h 9.0mph /  14.5km/h 31% 0.00in /  0mm 868.0 W/m2
11:57 77.0 °F /  25 °C 43.2 °F /  6.2 °C 29.97in /  1014.8hPa Calm   6.0mph /  9.7km/h 30% 0.00in /  0mm 445.0 W/m2
12:03 77.4 °F /  25.2 °C 44.4 °F /  6.9 °C 29.97in /  1014.8hPa NNE 4.0mph /  6.4km/h 11.0mph /  17.7km/h 31% 0.00in /  0mm 877.0 W/m2
12:09 77.5 °F /  25.3 °C 42.8 °F /  6 °C 29.96in /  1014.4hPa NNW 2.9mph /  4.7km/h 8.0mph /  12.9km/h 29% 0.00in /  0mm 856.0 W/m2
12:15 77.7 °F /  25.4 °C 43.0 °F /  6.1 °C 29.96in /  1014.4hPa WNW 2.9mph /  4.7km/h 6.0mph /  9.7km/h 29% 0.00in /  0mm 837.0 W/m2
12:21 78.3 °F /  25.7 °C 43.3 °F /  6.3 °C 29.96in /  1014.4hPa NW 2.0mph /  3.2km/h 11.0mph /  17.7km/h 29% 0.00in /  0mm 824.0 W/m2
12:27 78.3 °F /  25.7 °C 43.3 °F /  6.3 °C 29.95in /  1014.1hPa Calm   3.0mph /  4.8km/h 29% 0.00in /  0mm 833.0 W/m2
12:33 78.6 °F /  25.9 °C 41.9 °F /  5.5 °C 29.95in /  1014.1hPa NNW 4.0mph /  6.4km/h 5.0mph /  8km/h 27% 0.00in /  0mm 795.0 W/m2
12:39 78.6 °F /  25.9 °C 42.8 °F /  6 °C 29.94in /  1013.8hPa Calm   4.0mph /  6.4km/h 28% 0.00in /  0mm 624.0 W/m2
12:46 78.6 °F /  25.9 °C 42.8 °F /  6 °C 29.94in /  1013.8hPa NNW 4.0mph /  6.4km/h 12.0mph /  19.3km/h 28% 0.00in /  0mm 809.0 W/m2
12:52 78.6 °F /  25.9 °C 42.8 °F /  6 °C 29.94in /  1013.8hPa NNW 2.0mph /  3.2km/h 10.0mph /  16.1km/h 28% 0.00in /  0mm 846.0 W/m2
12:58 78.4 °F /  25.8 °C 43.5 °F /  6.4 °C 29.93in /  1013.4hPa NNW 6.0mph /  9.7km/h 8.0mph /  12.9km/h 29% 0.00in /  0mm 803.0 W/m2
13:04 78.8 °F /  26 °C 43.0 °F /  6.1 °C 29.93in /  1013.4hPa NNW 2.9mph /  4.7km/h 7.0mph /  11.3km/h 28% 0.00in /  0mm 780.0 W/m2
13:10 79.0 °F /  26.1 °C 43.2 °F /  6.2 °C 29.93in /  1013.4hPa North 6.9mph /  11.1km/h 9.0mph /  14.5km/h 28% 0.00in /  0mm 763.0 W/m2
13:18 79.0 °F /  26.1 °C 44.1 °F /  6.7 °C 29.93in /  1013.4hPa NNW 4.9mph /  7.9km/h 7.0mph /  11.3km/h 29% 0.00in /  0mm 735.0 W/m2
13:23 78.4 °F /  25.8 °C 43.5 °F /  6.4 °C 29.93in /  1013.4hPa NNE 4.9mph /  7.9km/h 5.0mph /  8km/h 29% 0.00in /  0mm 105.0 W/m2
13:30 77.5 °F /  25.3 °C 43.7 °F /  6.5 °C 29.93in /  1013.4hPa NNW 10.1mph /  16.3km/h 10.1mph /  16.3km/h 30% 0.00in /  0mm 763.0 W/m2
13:36 77.4 °F /  25.2 °C 44.4 °F /  6.9 °C 29.93in /  1013.4hPa North 2.0mph /  3.2km/h 9.0mph /  14.5km/h 31% 0.00in /  0mm 179.0 W/m2
13:41 77.0 °F /  25 °C 44.1 °F /  6.7 °C 29.92in /  1013.1hPa WNW 0.9mph /  1.4km/h 7.0mph /  11.3km/h 31% 0.00in /  0mm 735.0 W/m2
13:47 76.6 °F /  24.8 °C 44.6 °F /  7 °C 29.92in /  1013.1hPa NNW 2.0mph /  3.2km/h 8.0mph /  12.9km/h 32% 0.00in /  0mm 83.0 W/m2
13:53 76.3 °F /  24.6 °C 44.2 °F /  6.8 °C 29.92in /  1013.1hPa North 0.9mph /  1.4km/h 4.0mph /  6.4km/h 32% 0.00in /  0mm 128.0 W/m2
13:59 75.4 °F /  24.1 °C 44.2 °F /  6.8 °C 29.92in /  1013.1hPa Calm   7.0mph /  11.3km/h 33% 0.00in /  0mm 113.0 W/m2
14:05 74.8 °F /  23.8 °C 44.6 °F /  7 °C 29.92in /  1013.1hPa NNW 2.0mph /  3.2km/h 3.0mph /  4.8km/h 34% 0.00in /  0mm 190.0 W/m2
14:11 74.8 °F /  23.8 °C 44.6 °F /  7 °C 29.91in /  1012.8hPa Calm   2.0mph /  3.2km/h 34% 0.00in /  0mm 192.0 W/m2
14:17 75.4 °F /  24.1 °C 43.5 °F /  6.4 °C 29.91in /  1012.8hPa NNE 2.9mph /  4.7km/h 6.0mph /  9.7km/h 32% 0.00in /  0mm 642.0 W/m2
14:24 76.3 °F /  24.6 °C 43.3 °F /  6.3 °C 29.91in /  1012.8hPa NNW 4.0mph /  6.4km/h 7.0mph /  11.3km/h 31% 0.00in /  0mm 578.0 W/m2
14:30 77.0 °F /  25 °C 44.1 °F /  6.7 °C 29.91in /  1012.8hPa NNW 4.9mph /  7.9km/h 8.0mph /  12.9km/h 31% 0.00in /  0mm 564.0 W/m2
14:36 77.4 °F /  25.2 °C 44.4 °F /  6.9 °C 29.91in /  1012.8hPa ENE 2.0mph /  3.2km/h 5.0mph /  8km/h 31% 0.00in /  0mm 554.0 W/m2
14:42 77.5 °F /  25.3 °C 43.7 °F /  6.5 °C 29.91in /  1012.8hPa NNW 2.0mph /  3.2km/h 9.0mph /  14.5km/h 30% 0.00in /  0mm 524.0 W/m2
14:48 77.7 °F /  25.4 °C 44.6 °F /  7 °C 29.91in /  1012.8hPa WNW 4.9mph /  7.9km/h 7.0mph /  11.3km/h 31% 0.00in /  0mm 487.0 W/m2
14:54 78.1 °F /  25.6 °C 45.9 °F /  7.7 °C 29.91in /  1012.8hPa NW 4.0mph /  6.4km/h 7.0mph /  11.3km/h 32% 0.00in /  0mm 420.0 W/m2
15:00 77.4 °F /  25.2 °C 44.4 °F /  6.9 °C 29.91in /  1012.8hPa WSW 0.9mph /  1.4km/h 5.0mph /  8km/h 31% 0.00in /  0mm 54.0 W/m2
15:07 76.5 °F /  24.7 °C 44.4 °F /  6.9 °C 29.91in /  1012.8hPa Calm   10.0mph /  16.1km/h 32% 0.00in /  0mm 454.0 W/m2
15:19 76.8 °F /  24.9 °C 43.9 °F /  6.6 °C 29.91in /  1012.8hPa Calm     31% 0.00in /  0mm 120.0 W/m2
15:25 77.2 °F /  25.1 °C 43.3 °F /  6.3 °C 29.91in /  1012.8hPa Calm   6.0mph /  9.7km/h 30% 0.00in /  0mm 418.0 W/m2
15:31 77.2 °F /  25.1 °C 43.3 °F /  6.3 °C 29.91in /  1012.8hPa NNW 0.9mph /  1.4km/h 8.0mph /  12.9km/h 30% 0.00in /  0mm 385.0 W/m2
15:37 77.2 °F /  25.1 °C 43.3 °F /  6.3 °C 29.91in /  1012.8hPa NNE 2.9mph /  4.7km/h 4.0mph /  6.4km/h 30% 0.00in /  0mm 348.0 W/m2
15:43 77.2 °F /  25.1 °C 44.2 °F /  6.8 °C 29.91in /  1012.8hPa NNW 4.0mph /  6.4km/h 7.0mph /  11.3km/h 31% 0.00in /  0mm 63.0 W/m2
15:49 76.8 °F /  24.9 °C 43.9 °F /  6.6 °C 29.91in /  1012.8hPa NNW 6.9mph /  11.1km/h 8.0mph /  12.9km/h 31% 0.00in /  0mm 54.0 W/m2
15:56 76.5 °F /  24.7 °C 42.8 °F /  6 °C 29.91in /  1012.8hPa NNW 2.9mph /  4.7km/h 5.0mph /  8km/h 30% 0.00in /  0mm 51.0 W/m2
16:04 75.9 °F /  24.4 °C 43.9 °F /  6.6 °C 29.91in /  1012.8hPa NNE 10.1mph /  16.3km/h 10.1mph /  16.3km/h 32% 0.00in /  0mm 39.0 W/m2
16:10 75.4 °F /  24.1 °C 43.5 °F /  6.4 °C 29.91in /  1012.8hPa NW 4.0mph /  6.4km/h 7.0mph /  11.3km/h 32% 0.00in /  0mm 33.0 W/m2
16:16 74.8 °F /  23.8 °C 43.0 °F /  6.1 °C 29.91in /  1012.8hPa NNE 2.9mph /  4.7km/h 7.0mph /  11.3km/h 32% 0.00in /  0mm 28.0 W/m2
16:22 74.7 °F /  23.7 °C 43.7 °F /  6.5 °C 29.91in /  1012.8hPa NNW 6.0mph /  9.7km/h 6.0mph /  9.7km/h 33% 0.00in /  0mm 25.0 W/m2
16:28 74.3 °F /  23.5 °C 42.6 °F /  5.9 °C 29.92in /  1013.1hPa NNW 2.9mph /  4.7km/h 5.0mph /  8km/h 32% 0.00in /  0mm 23.0 W/m2
16:34 74.1 °F /  23.4 °C 43.2 °F /  6.2 °C 29.92in /  1013.1hPa NNW 0.9mph /  1.4km/h 2.0mph /  3.2km/h 33% 0.00in /  0mm 23.0 W/m2
16:40 73.8 °F /  23.2 °C 43.7 °F /  6.5 °C 29.92in /  1013.1hPa Calm   2.0mph /  3.2km/h 34% 0.00in /  0mm 23.0 W/m2
16:47 73.6 °F /  23.1 °C 43.5 °F /  6.4 °C 29.92in /  1013.1hPa NNE 4.0mph /  6.4km/h 4.0mph /  6.4km/h 34% 0.00in /  0mm 21.0 W/m2
16:53 73.4 °F /  23 °C 44.1 °F /  6.7 °C 29.92in /  1013.1hPa North 2.9mph /  4.7km/h 4.0mph /  6.4km/h 35% 0.00in /  0mm 18.0 W/m2
16:59 73.2 °F /  22.9 °C 43.9 °F /  6.6 °C 29.92in /  1013.1hPa Calm   3.0mph /  4.8km/h 35% 0.00in /  0mm 16.0 W/m2
17:05 73.0 °F /  22.8 °C 43.7 °F /  6.5 °C 29.92in /  1013.1hPa NNW 2.0mph /  3.2km/h 3.0mph /  4.8km/h 35% 0.00in /  0mm 14.0 W/m2
17:11 72.9 °F /  22.7 °C 43.5 °F /  6.4 °C 29.92in /  1013.1hPa Calm   1.0mph /  1.6km/h 35% 0.00in /  0mm 11.0 W/m2
17:17 72.3 °F /  22.4 °C 43.9 °F /  6.6 °C 29.92in /  1013.1hPa Calm   1.0mph /  1.6km/h 36% 0.00in /  0mm 5.0 W/m2
17:23 72.0 °F /  22.2 °C 44.2 °F /  6.8 °C 29.92in /  1013.1hPa Calm     37% 0.00in /  0mm 0.0 W/m2
17:29 71.8 °F /  22.1 °C 44.8 °F /  7.1 °C 29.92in /  1013.1hPa Calm     38% 0.00in /  0mm 0.0 W/m2
17:36 71.1 °F /  21.7 °C 44.8 °F /  7.1 °C 29.92in /  1013.1hPa Calm     39% 0.00in /  0mm 0.0 W/m2
17:42 70.5 °F /  21.4 °C 45.0 °F /  7.2 °C 29.93in /  1013.4hPa Calm     40% 0.00in /  0mm 0.0 W/m2
17:48 69.6 °F /  20.9 °C 44.2 °F /  6.8 °C 29.93in /  1013.4hPa Calm     40% 0.00in /  0mm 0.0 W/m2
17:54 69.1 °F /  20.6 °C 44.4 °F /  6.9 °C 29.93in /  1013.4hPa NNW 0.9mph /  1.4km/h 1.0mph /  1.6km/h 41% 0.00in /  0mm 0.0 W/m2
18:00 68.2 °F /  20.1 °C 44.2 °F /  6.8 °C 29.93in /  1013.4hPa Calm   1.0mph /  1.6km/h 42% 0.00in /  0mm 0.0 W/m2
18:06 67.5 °F /  19.7 °C 44.2 °F /  6.8 °C 29.93in /  1013.4hPa Calm   1.0mph /  1.6km/h 43% 0.00in /  0mm 0.0 W/m2
18:12 66.9 °F /  19.4 °C 44.2 °F /  6.8 °C 29.94in /  1013.8hPa Calm     44% 0.00in /  0mm 0.0 W/m2
18:18 66.4 °F /  19.1 °C 44.4 °F /  6.9 °C 29.94in /  1013.8hPa Calm     45% 0.00in /  0mm 0.0 W/m2
18:25 65.8 °F /  18.8 °C 44.4 °F /  6.9 °C 29.94in /  1013.8hPa Calm     46% 0.00in /  0mm 0.0 W/m2
18:31 65.5 °F /  18.6 °C 44.8 °F /  7.1 °C 29.94in /  1013.8hPa Calm     47% 0.00in /  0mm 0.0 W/m2
18:37 64.9 °F /  18.3 °C 44.2 °F /  6.8 °C 29.94in /  1013.8hPa Calm     47% 0.00in /  0mm 0.0 W/m2
18:43 64.6 °F /  18.1 °C 44.4 °F /  6.9 °C 29.94in /  1013.8hPa Calm   1.0mph /  1.6km/h 48% 0.00in /  0mm 0.0 W/m2
18:49 64.2 °F /  17.9 °C 44.6 °F /  7 °C 29.94in /  1013.8hPa Calm   1.0mph /  1.6km/h 49% 0.00in /  0mm 0.0 W/m2
18:55 63.9 °F /  17.7 °C 44.2 °F /  6.8 °C 29.94in /  1013.8hPa Calm   3.0mph /  4.8km/h 49% 0.00in /  0mm 0.0 W/m2
19:01 63.5 °F /  17.5 °C 44.6 °F /  7 °C 29.94in /  1013.8hPa Calm   1.0mph /  1.6km/h 50% 0.00in /  0mm 0.0 W/m2
19:08 63.1 °F /  17.3 °C 44.2 °F /  6.8 °C 29.95in /  1014.1hPa Calm   1.0mph /  1.6km/h 50% 0.00in /  0mm 0.0 W/m2
19:14 63.0 °F /  17.2 °C 44.6 °F /  7 °C 29.95in /  1014.1hPa Calm     51% 0.00in /  0mm 0.0 W/m2
19:20 62.8 °F /  17.1 °C 44.4 °F /  6.9 °C 29.95in /  1014.1hPa Calm   1.0mph /  1.6km/h 51% 0.00in /  0mm 0.0 W/m2
19:26 62.4 °F /  16.9 °C 44.6 °F /  7 °C 29.95in /  1014.1hPa Calm   1.0mph /  1.6km/h 52% 0.00in /  0mm 0.0 W/m2
19:32 62.2 °F /  16.8 °C 44.4 °F /  6.9 °C 29.96in /  1014.4hPa Calm   2.0mph /  3.2km/h 52% 0.00in /  0mm 0.0 W/m2
19:38 62.1 °F /  16.7 °C 44.8 °F /  7.1 °C 29.96in /  1014.4hPa Calm   3.0mph /  4.8km/h 53% 0.00in /  0mm 0.0 W/m2
19:44 61.9 °F /  16.6 °C 44.6 °F /  7 °C 29.96in /  1014.4hPa Calm     53% 0.00in /  0mm 0.0 W/m2
19:50 61.5 °F /  16.4 °C 44.2 °F /  6.8 °C 29.96in /  1014.4hPa Calm   1.0mph /  1.6km/h 53% 0.00in /  0mm 0.0 W/m2
19:57 61.3 °F /  16.3 °C 44.1 °F /  6.7 °C 29.96in /  1014.4hPa Calm   1.0mph /  1.6km/h 53% 0.00in /  0mm 0.0 W/m2
20:03 61.2 °F /  16.2 °C 44.4 °F /  6.9 °C 29.96in /  1014.4hPa East 0.9mph /  1.4km/h 2.0mph /  3.2km/h 54% 0.00in /  0mm 0.0 W/m2
20:09 61.0 °F /  16.1 °C 44.2 °F /  6.8 °C 29.96in /  1014.4hPa Calm     54% 0.00in /  0mm 0.0 W/m2
20:15 60.6 °F /  15.9 °C 44.4 °F /  6.9 °C 29.96in /  1014.4hPa ENE 2.0mph /  3.2km/h 2.0mph /  3.2km/h 55% 0.00in /  0mm 0.0 W/m2
20:21 60.6 °F /  15.9 °C 44.4 °F /  6.9 °C 29.96in /  1014.4hPa Calm   2.0mph /  3.2km/h 55% 0.00in /  0mm 0.0 W/m2
20:27 60.4 °F /  15.8 °C 44.6 °F /  7 °C 29.97in /  1014.8hPa ENE 0.9mph /  1.4km/h 4.0mph /  6.4km/h 56% 0.00in /  0mm 0.0 W/m2
20:33 60.3 °F /  15.7 °C 45.0 °F /  7.2 °C 29.97in /  1014.8hPa Calm   4.0mph /  6.4km/h 57% 0.00in /  0mm 0.0 W/m2
20:40 59.7 °F /  15.4 °C 44.4 °F /  6.9 °C 29.97in /  1014.8hPa Calm   3.0mph /  4.8km/h 57% 0.00in /  0mm 0.0 W/m2
20:46 59.5 °F /  15.3 °C 44.2 °F /  6.8 °C 29.97in /  1014.8hPa Calm   4.0mph /  6.4km/h 57% 0.00in /  0mm 0.0 W/m2
20:52 59.4 °F /  15.2 °C 44.6 °F /  7 °C 29.97in /  1014.8hPa Calm   2.0mph /  3.2km/h 58% 0.00in /  0mm 0.0 W/m2
20:58 59.4 °F /  15.2 °C 44.6 °F /  7 °C 29.97in /  1014.8hPa Calm   2.0mph /  3.2km/h 58% 0.00in /  0mm 0.0 W/m2
21:04 59.2 °F /  15.1 °C 44.4 °F /  6.9 °C 29.97in /  1014.8hPa Calm   2.0mph /  3.2km/h 58% 0.00in /  0mm 0.0 W/m2
21:10 59.0 °F /  15 °C 44.2 °F /  6.8 °C 29.97in /  1014.8hPa Calm   1.0mph /  1.6km/h 58% 0.00in /  0mm 0.0 W/m2
21:16 58.8 °F /  14.9 °C 44.1 °F /  6.7 °C 29.97in /  1014.8hPa Calm   1.0mph /  1.6km/h 58% 0.00in /  0mm 0.0 W/m2
21:22 58.6 °F /  14.8 °C 44.4 °F /  6.9 °C 29.97in /  1014.8hPa Calm   3.0mph /  4.8km/h 59% 0.00in /  0mm 0.0 W/m2
21:29 58.6 °F /  14.8 °C 44.4 °F /  6.9 °C 29.97in /  1014.8hPa Calm   1.0mph /  1.6km/h 59% 0.00in /  0mm 0.0 W/m2
21:35 58.5 °F /  14.7 °C 44.2 °F /  6.8 °C 29.97in /  1014.8hPa Calm   3.0mph /  4.8km/h 59% 0.00in /  0mm 0.0 W/m2
21:41 58.3 °F /  14.6 °C 44.1 °F /  6.7 °C 29.97in /  1014.8hPa Calm   2.0mph /  3.2km/h 59% 0.00in /  0mm 0.0 W/m2
21:47 58.3 °F /  14.6 °C 44.4 °F /  6.9 °C 29.98in /  1015.1hPa Calm   3.0mph /  4.8km/h 60% 0.00in /  0mm 0.0 W/m2
21:53 58.3 °F /  14.6 °C 44.4 °F /  6.9 °C 29.99in /  1015.5hPa Calm   1.0mph /  1.6km/h 60% 0.00in /  0mm 0.0 W/m2
21:59 58.6 °F /  14.8 °C 44.8 °F /  7.1 °C 29.99in /  1015.5hPa ENE 0.9mph /  1.4km/h 2.0mph /  3.2km/h 60% 0.00in /  0mm 0.0 W/m2
22:05 59.4 °F /  15.2 °C 45.5 °F /  7.5 °C 29.99in /  1015.5hPa NE 0.9mph /  1.4km/h 2.0mph /  3.2km/h 60% 0.00in /  0mm 0.0 W/m2
22:11 59.7 °F /  15.4 °C 45.3 °F /  7.4 °C 29.99in /  1015.5hPa Calm   2.0mph /  3.2km/h 59% 0.00in /  0mm 0.0 W/m2
22:18 60.1 °F /  15.6 °C 45.7 °F /  7.6 °C 29.99in /  1015.5hPa Calm   2.0mph /  3.2km/h 59% 0.00in /  0mm 0.0 W/m2
22:24 60.1 °F /  15.6 °C 46.2 °F /  7.9 °C 29.99in /  1015.5hPa Calm   1.0mph /  1.6km/h 60% 0.00in /  0mm 0.0 W/m2
22:30 60.1 °F /  15.6 °C 46.2 °F /  7.9 °C 29.99in /  1015.5hPa NE 0.9mph /  1.4km/h 1.0mph /  1.6km/h 60% 0.00in /  0mm 0.0 W/m2
22:36 60.1 °F /  15.6 °C 46.2 °F /  7.9 °C 29.99in /  1015.5hPa Calm     60% 0.00in /  0mm 0.0 W/m2
22:42 60.1 °F /  15.6 °C 46.6 °F /  8.1 °C 29.99in /  1015.5hPa Calm     61% 0.00in /  0mm 0.0 W/m2
22:48 59.7 °F /  15.4 °C 46.2 °F /  7.9 °C 29.99in /  1015.5hPa Calm     61% 0.00in /  0mm 0.0 W/m2
22:55 59.7 °F /  15.4 °C 46.8 °F /  8.2 °C 30.00in /  1015.8hPa Calm     62% 0.00in /  0mm 0.0 W/m2
23:01 59.5 °F /  15.3 °C 46.6 °F /  8.1 °C 30.00in /  1015.8hPa Calm     62% 0.00in /  0mm 0.0 W/m2
23:07 59.4 °F /  15.2 °C 46.8 °F /  8.2 °C 30.00in /  1015.8hPa Calm   2.0mph /  3.2km/h 63% 0.00in /  0mm 0.0 W/m2
23:13 59.2 °F /  15.1 °C 46.9 °F /  8.3 °C 30.00in /  1015.8hPa Calm   1.0mph /  1.6km/h 64% 0.00in /  0mm 0.0 W/m2
23:19 58.8 °F /  14.9 °C 46.6 °F /  8.1 °C 29.99in /  1015.5hPa Calm     64% 0.00in /  0mm 0.0 W/m2
23:25 58.6 °F /  14.8 °C 46.6 °F /  8.1 °C 29.99in /  1015.5hPa Calm     64% 0.00in /  0mm 0.0 W/m2
23:31 58.5 °F /  14.7 °C 46.8 °F /  8.2 °C 29.99in /  1015.5hPa Calm     65% 0.00in /  0mm 0.0 W/m2
23:37 58.5 °F /  14.7 °C 47.1 °F /  8.4 °C 30.00in /  1015.8hPa Calm   1.0mph /  1.6km/h 66% 0.00in /  0mm 0.0 W/m2
23:44 58.3 °F /  14.6 °C 46.9 °F /  8.3 °C 29.99in /  1015.5hPa Calm   1.0mph /  1.6km/h 66% 0.00in /  0mm 0.0 W/m2
23:50 57.9 °F /  14.4 °C 46.9 °F /  8.3 °C 29.99in /  1015.5hPa East 3.0mph /  4.8km/h 3.0mph /  4.8km/h 67% 0.00in /  0mm 0.0 W/m2
23:56 57.7 °F /  14.3 °C 47.3 °F /  8.5 °C 29.99in /  1015.5hPa Calm     68% 0.00in /  0mm 0.0 W/m2
Olympia, Windhoek, Namibia
Compliments of Weather Underground - 3 mb